Time;durP1;ratioP1;P1;durP2;ratioP2;P2;SDS_P1;SDS_P2;PMS_P1;PMS_P2;Temp;Humidity;BMP_temperature;BMP_pressure;BME280_temperature;BME280_humidity;BME280_pressure;Samples;Min_cycle;Max_cycle;Signal;HPM_P1;HPM_P2
2021/10/16 00:01:20;;;;;;;;;15.40;14.40;;;;;16.29;50.92;98882.19;6141151;28;97182;-64
2021/10/16 00:04:23;;;;;;;;;18.00;16.00;;;;;16.28;51.28;98877.84;6121909;28;96747;-65
2021/10/16 00:07:27;;;;;;;;;17.20;16.00;;;;;16.32;50.78;98886.31;6126644;28;97019;-63
2021/10/16 00:10:32;;;;;;;;;13.00;13.00;;;;;16.31;50.75;98893.66;6106311;28;97221;-65
2021/10/16 00:13:36;;;;;;;;;15.20;13.80;;;;;16.30;50.69;98893.91;6106838;28;98180;-65
2021/10/16 00:16:39;;;;;;;;;17.00;15.00;;;;;16.28;50.82;98905.03;6143514;28;96836;-64
2021/10/16 00:19:43;;;;;;;;;13.00;12.00;;;;;16.27;50.47;98908.84;6122344;28;98774;-65
2021/10/16 00:22:46;;;;;;;;;14.40;14.00;;;;;16.33;50.38;98915.97;6141458;28;96555;-65
2021/10/16 00:25:51;;;;;;;;;12.25;12.25;;;;;16.39;50.35;98904.06;6141165;28;96518;-63
2021/10/16 00:28:55;;;;;;;;;15.50;13.25;;;;;16.35;50.40;98916.53;6141620;28;96687;-65
2021/10/16 00:31:59;;;;;;;;;14.60;13.00;;;;;16.17;50.18;98862.53;6123141;28;96662;-65
2021/10/16 00:35:02;;;;;;;;;13.00;12.00;;;;;16.41;50.31;98911.97;6117952;28;97081;-65
2021/10/16 00:38:06;;;;;;;;;13.00;12.00;;;;;16.33;50.33;98907.81;6141602;28;97114;-65
2021/10/16 00:41:12;;;;;;;;;13.00;13.00;;;;;16.33;50.49;98915.97;6123411;28;96824;-65
2021/10/16 00:44:17;;;;;;;;;14.00;13.00;;;;;16.35;50.35;98924.69;6126542;28;97532;-65
2021/10/16 00:47:20;;;;;;;;;14.00;13.40;;;;;16.33;50.34;98923.31;6133082;28;96745;-63
2021/10/16 00:50:24;;;;;;;;;11.80;11.80;;;;;15.77;50.19;98841.19;6130363;28;97441;-65
2021/10/16 00:53:28;;;;;;;;;13.00;12.00;;;;;16.28;50.13;98928.69;6141247;28;96652;-63
2021/10/16 00:56:33;;;;;;;;;9.40;9.40;;;;;16.18;50.02;98921.25;6142310;28;97529;-65
2021/10/16 00:59:36;;;;;;;;;9.40;9.00;;;;;16.24;49.72;98928.41;6123709;28;97833;-65
2021/10/16 01:02:41;;;;;;;;;10.00;9.00;;;;;16.28;49.48;98918.63;6121698;28;97134;-63
2021/10/16 01:05:44;;;;;;;;;9.00;9.00;;;;;16.24;49.49;98931.13;6107353;28;98458;-64
2021/10/16 01:08:48;;;;;;;;;12.00;10.00;;;;;16.13;49.71;98932.09;6122052;28;97097;-64
2021/10/16 01:11:54;;;;;;;;;10.00;9.00;;;;;16.04;49.72;98931.72;6123832;28;96866;-64
2021/10/16 01:15:02;;;;;;;;;11.00;9.00;;;;;16.04;49.74;98936.34;6124336;28;96883;-65
2021/10/16 01:18:06;;;;;;;;;10.00;9.00;;;;;16.07;49.72;98935.84;6122477;28;97117;-64
2021/10/16 01:21:11;;;;;;;;;11.00;9.00;;;;;16.07;49.40;98935.03;6122363;28;96991;-64
2021/10/16 01:24:16;;;;;;;;;10.00;9.00;;;;;15.92;49.94;98941.13;6140181;28;97568;-65
2021/10/16 01:27:20;;;;;;;;;9.00;9.00;;;;;15.94;49.96;98938.94;6138843;28;97470;-65
2021/10/16 01:30:25;;;;;;;;;9.00;8.00;;;;;15.93;49.74;98934.63;6141753;28;96553;-63
2021/10/16 01:33:30;;;;;;;;;10.00;9.00;;;;;15.83;50.00;98940.72;6140047;28;96419;-65
2021/10/16 01:36:43;;;;;;;;;9.00;9.00;;;;;15.65;49.69;98921.22;6125016;28;96641;-65
2021/10/16 01:39:47;;;;;;;;;7.00;7.00;;;;;15.65;49.82;98943.78;6104755;28;99609;-64
2021/10/16 01:42:51;;;;;;;;;6.00;4.50;;;;;15.69;49.80;98946.81;6140243;28;96855;-65
2021/10/16 01:45:57;;;;;;;;;6.50;6.00;;;;;15.68;49.48;98942.47;6124203;28;96783;-65
2021/10/16 01:49:09;;;;;;;;;7.00;6.00;;;;;15.58;49.73;98937.72;6123252;28;96480;-65
2021/10/16 01:52:14;;;;;;;;;7.00;7.00;;;;;15.65;49.48;98948.38;6108230;28;98084;-64
2021/10/16 01:55:20;;;;;;;;;6.00;6.00;;;;;15.71;49.04;98958.25;6104176;28;99623;-65
2021/10/16 01:58:28;;;;;;;;;6.00;5.00;;;;;15.61;49.31;98956.25;6104530;28;97066;-63
2021/10/16 02:01:57;;;;;;;;;5.80;5.80;;;;;15.50;49.29;98957.13;6137006;28;97340;-65
2021/10/16 02:05:03;;;;;;;;;7.00;6.00;;;;;15.44;49.18;98956.25;6122274;28;98168;-65
2021/10/16 02:08:07;;;;;;;;;6.00;6.00;;;;;15.42;49.13;98965.72;6121734;28;97063;-64
2021/10/16 02:11:13;;;;;;;;;5.00;5.00;;;;;15.36;49.24;98962.13;6108979;28;100289;-63
2021/10/16 02:14:25;;;;;;;;;5.00;5.00;;;;;15.35;48.98;98965.06;6124515;28;97824;-64
2021/10/16 02:17:34;;;;;;;;;4.80;4.20;;;;;15.31;49.17;98967.47;6122940;28;97402;-65
2021/10/16 02:20:38;;;;;;;;;5.00;5.00;;;;;15.22;49.20;98970.88;6123808;28;97338;-64
2021/10/16 02:23:43;;;;;;;;;5.00;5.00;;;;;15.06;49.06;98958.97;6138089;28;97485;-64
2021/10/16 02:26:48;;;;;;;;;7.00;6.00;;;;;15.11;49.18;98973.44;6106897;28;97150;-65
2021/10/16 02:29:55;;;;;;;;;6.00;6.00;;;;;15.13;49.29;98979.47;6139459;28;97106;-65
2021/10/16 02:32:59;;;;;;;;;6.00;6.00;;;;;15.13;49.12;98979.47;6106917;28;96786;-65
2021/10/16 02:36:04;;;;;;;;;6.00;6.00;;;;;15.09;49.56;98985.63;6121787;28;97657;-64
2021/10/16 02:39:09;;;;;;;;;6.00;5.00;;;;;15.10;49.53;98985.38;6120538;28;96636;-64
2021/10/16 02:42:13;;;;;;;;;6.40;5.00;;;;;15.15;49.73;98984.63;6105127;28;98400;-64
2021/10/16 02:45:18;;;;;;;;;6.40;6.00;;;;;15.16;49.97;98988.97;6123877;28;96726;-64
2021/10/16 02:48:22;;;;;;;;;6.00;5.00;;;;;15.19;49.86;98996.66;6126691;28;96922;-64
2021/10/16 02:51:25;;;;;;;;;6.40;6.40;;;;;15.22;49.98;99001.56;6105957;28;98238;-63
2021/10/16 02:54:30;;;;;;;;;8.40;7.40;;;;;15.25;49.86;99005.72;6138679;28;97559;-64
2021/10/16 02:57:35;;;;;;;;;6.20;5.80;;;;;15.24;49.69;99002.16;6121763;28;97402;-64
2021/10/16 03:00:38;;;;;;;;;9.00;8.00;;;;;15.20;49.72;99001.00;6093566;28;97644;-63
2021/10/16 03:03:42;;;;;;;;;7.00;6.00;;;;;15.17;49.60;99001.50;6104948;28;99035;-65
2021/10/16 03:06:45;;;;;;;;;7.00;7.00;;;;;15.18;49.65;99000.44;6120374;28;97517;-65
2021/10/16 03:09:54;;;;;;;;;7.50;7.00;;;;;15.15;49.89;99003.63;6121305;28;97971;-64
2021/10/16 03:12:57;;;;;;;;;9.60;8.60;;;;;15.10;50.19;99000.88;6120643;28;97487;-63
2021/10/16 03:16:01;;;;;;;;;9.00;8.40;;;;;15.05;50.58;99007.00;6137022;28;96768;-65
2021/10/16 03:19:04;;;;;;;;;8.00;8.00;;;;;14.98;50.49;99014.50;6120814;28;96714;-63
2021/10/16 03:22:09;;;;;;;;;8.80;8.80;;;;;14.91;50.53;99015.72;6118455;28;96619;-65
2021/10/16 03:25:16;;;;;;;;;9.00;8.00;;;;;14.88;50.61;99018.94;6119274;28;96839;-64
2021/10/16 03:28:19;;;;;;;;;9.60;9.00;;;;;14.79;50.95;99020.44;6102714;28;96942;-64
2021/10/16 03:31:22;;;;;;;;;10.00;9.00;;;;;14.72;50.88;99023.28;6118424;28;97818;-64
2021/10/16 03:34:27;;;;;;;;;9.50;8.25;;;;;14.62;51.27;99023.13;6119093;28;97209;-63
2021/10/16 03:37:31;;;;;;;;;8.67;8.00;;;;;14.50;51.24;99003.38;6120321;28;98157;-65
2021/10/16 03:40:36;;;;;;;;;10.20;9.00;;;;;14.52;51.39;99021.03;6120797;28;97327;-65
2021/10/16 03:43:41;;;;;;;;;9.00;8.67;;;;;14.32;51.52;99002.47;6120809;28;97877;-64
2021/10/16 03:46:46;;;;;;;;;9.50;9.00;;;;;14.41;51.50;99030.06;6104400;28;97453;-63
2021/10/16 03:49:53;;;;;;;;;10.20;10.00;;;;;14.27;52.12;99028.66;6110761;28;96619;-64
2021/10/16 03:52:57;;;;;;;;;10.00;10.00;;;;;14.18;52.38;99035.53;6120185;28;96738;-65
2021/10/16 03:56:02;;;;;;;;;9.00;9.00;;;;;14.14;52.18;99027.06;6120815;28;96867;-64
2021/10/16 03:59:07;;;;;;;;;10.20;9.20;;;;;14.06;52.71;99038.31;6104354;28;97291;-65
2021/10/16 04:02:11;;;;;;;;;10.60;10.00;;;;;14.06;52.52;99043.72;6120272;28;97449;-64
2021/10/16 04:05:15;;;;;;;;;11.50;11.00;;;;;14.01;52.55;99037.38;6137952;28;96680;-65
2021/10/16 04:08:19;;;;;;;;;10.00;9.00;;;;;13.91;53.02;99039.88;6115107;28;97808;-64
2021/10/16 04:11:25;;;;;;;;;9.00;9.00;;;;;13.93;52.80;99035.84;6120970;28;96656;-65
2021/10/16 04:14:28;;;;;;;;;10.00;9.00;;;;;13.98;52.68;99037.84;6119006;28;96873;-63
2021/10/16 04:17:32;;;;;;;;;10.00;10.00;;;;;13.91;52.83;99039.88;6124457;28;96664;-63
2021/10/16 04:20:36;;;;;;;;;11.00;10.00;;;;;13.88;53.04;99047.41;6124865;28;97050;-63
2021/10/16 04:23:39;;;;;;;;;9.80;9.00;;;;;13.94;52.76;99047.53;6109893;28;97334;-65
2021/10/16 04:26:44;;;;;;;;;9.00;8.00;;;;;13.93;52.76;99049.41;6126589;28;96484;-64
2021/10/16 04:29:48;;;;;;;;;11.60;10.00;;;;;13.82;52.58;99031.31;6108583;28;100139;-65
2021/10/16 04:32:59;;;;;;;;;9.00;9.00;;;;;13.92;52.52;99047.78;6128399;28;97493;-63
2021/10/16 04:36:03;;;;;;;;;10.00;9.00;;;;;13.89;52.69;99051.78;6141613;28;98110;-65
2021/10/16 04:39:07;;;;;;;;;8.40;8.00;;;;;13.85;52.83;99052.50;6124430;28;96638;-65
2021/10/16 04:42:12;;;;;;;;;9.00;8.60;;;;;13.79;53.00;99048.84;6123049;28;98037;-64
2021/10/16 04:45:17;;;;;;;;;10.00;9.20;;;;;13.88;52.79;99050.13;6123922;28;97252;-63
2021/10/16 04:48:22;;;;;;;;;10.00;9.00;;;;;13.89;52.82;99051.78;6123912;28;96734;-63
2021/10/16 04:51:25;;;;;;;;;9.00;9.00;;;;;13.93;52.86;99054.03;6124016;28;97428;-65
2021/10/16 04:54:29;;;;;;;;;8.20;8.00;;;;;13.92;52.83;99058.63;6123266;28;96662;-64
2021/10/16 04:57:34;;;;;;;;;9.00;8.00;;;;;13.99;52.70;99064.72;6123757;28;97445;-65
2021/10/16 05:00:37;;;;;;;;;10.00;9.00;;;;;13.99;52.87;99069.31;6110089;28;96581;-64
2021/10/16 05:03:45;;;;;;;;;9.00;9.00;;;;;13.97;52.89;99069.56;6138611;28;96715;-63
2021/10/16 05:06:50;;;;;;;;;10.00;9.00;;;;;14.04;52.84;99075.66;6123367;28;97863;-65
2021/10/16 05:09:54;;;;;;;;;9.60;9.60;;;;;14.05;52.99;99073.78;6123224;28;96640;-64
2021/10/16 05:12:59;;;;;;;;;10.60;10.60;;;;;14.05;52.91;99081.91;6137760;28;96963;-65
2021/10/16 05:16:02;;;;;;;;;11.00;9.50;;;;;14.03;52.84;99084.84;6106094;28;97134;-65
2021/10/16 05:19:05;;;;;;;;;11.00;11.00;;;;;14.08;52.99;99095.81;6140338;28;96624;-63
2021/10/16 05:22:10;;;;;;;;;11.80;10.80;;;;;14.12;52.77;99096.19;6122144;28;97616;-64
2021/10/16 05:25:16;;;;;;;;;12.00;10.00;;;;;14.11;53.02;99103.47;6121275;28;97010;-64
2021/10/16 05:28:21;;;;;;;;;12.75;11.00;;;;;14.15;52.58;99101.09;6120159;28;97445;-64
2021/10/16 05:31:27;;;;;;;;;11.00;10.00;;;;;14.14;52.83;99094.03;6103920;28;97769;-64
2021/10/16 05:34:31;;;;;;;;;10.00;9.00;;;;;14.21;52.67;99105.59;6120327;28;97279;-63
2021/10/16 05:43:13;;;;;;;;;13.00;12.00;;;;;14.27;52.49;99108.13;6151450;22;96863;-65
2021/10/16 05:46:19;;;;;;;;;13.00;12.00;;;;;14.28;52.50;99111.69;6170214;28;98154;-64
2021/10/16 05:49:26;;;;;;;;;14.50;13.50;;;;;14.31;52.51;99122.06;6166435;28;97927;-65
2021/10/16 05:52:30;;;;;;;;;14.00;12.00;;;;;14.34;51.92;99118.84;6164777;28;96741;-65
2021/10/16 05:55:33;;;;;;;;;13.00;13.00;;;;;14.41;51.93;99116.06;6189784;28;96685;-63
2021/10/16 05:58:38;;;;;;;;;15.20;14.00;;;;;14.49;52.17;99132.75;6151717;28;98599;-63
2021/10/16 06:01:43;;;;;;;;;14.40;13.20;;;;;14.49;52.02;99129.22;6161503;28;96769;-65
2021/10/16 06:04:46;;;;;;;;;14.00;12.00;;;;;14.47;52.13;99128.63;6164965;28;96710;-67
2021/10/16 06:07:50;;;;;;;;;15.00;13.25;;;;;14.52;51.97;99126.03;6178293;28;97424;-65
2021/10/16 06:10:53;;;;;;;;;15.00;12.00;;;;;14.68;51.76;99138.81;6179477;28;97225;-63
2021/10/16 06:13:56;;;;;;;;;13.00;13.00;;;;;14.72;51.89;99142.69;6159193;28;97383;-63
2021/10/16 06:17:02;;;;;;;;;13.50;13.00;;;;;14.76;51.69;99146.56;6142207;28;96760;-64
2021/10/16 06:20:07;;;;;;;;;14.60;13.80;;;;;14.78;51.60;99157.19;6140195;28;97001;-63
2021/10/16 06:23:12;;;;;;;;;12.25;11.50;;;;;14.83;51.45;99154.56;6133058;28;97919;-64
2021/10/16 06:26:16;;;;;;;;;14.00;13.00;;;;;14.84;51.36;99159.78;6140428;28;97935;-63
2021/10/16 06:29:19;;;;;;;;;12.75;11.00;;;;;14.94;51.49;99161.84;6126645;28;97947;-65
2021/10/16 06:32:24;;;;;;;;;13.25;12.75;;;;;14.98;51.17;99165.72;6119091;28;98957;-65
2021/10/16 06:35:29;;;;;;;;;11.00;11.00;;;;;15.01;50.91;99173.38;6141100;28;96677;-65
2021/10/16 06:38:38;;;;;;;;;13.20;12.20;;;;;15.08;50.98;99179.50;6138926;28;96758;-65
2021/10/16 06:41:42;;;;;;;;;14.00;13.00;;;;;15.16;50.58;99170.94;6142844;28;97006;-65
2021/10/16 06:45:07;;;;;;;;;15.00;14.40;;;;;15.35;50.06;99177.78;6158566;28;97408;-63
2021/10/16 06:48:32;;;;;;;;;15.00;14.00;;;;;15.51;49.13;99173.47;6151617;28;97458;-65
2021/10/16 06:51:50;;;;;;;;;13.00;13.00;;;;;15.64;49.17;99175.88;6147913;28;96642;-65
2021/10/16 06:54:53;;;;;;;;;13.75;12.00;;;;;16.46;47.52;99174.09;6143959;28;96715;-64
2021/10/16 06:57:56;;;;;;;;;11.60;11.00;;;;;18.69;42.95;99172.47;6142123;28;97119;-63
2021/10/16 07:39:18;;;;;;;;;13.80;13.20;;;;;23.52;31.30;99204.16;7116595;22;97341;-65
2021/10/16 07:42:22;;;;;;;;;13.00;12.00;;;;;23.90;31.10;99208.47;6131706;28;96670;-63
2021/10/16 07:45:25;;;;;;;;;14.80;12.00;;;;;23.43;31.78;99203.97;6122811;28;96589;-63
2021/10/16 07:48:28;;;;;;;;;12.25;11.00;;;;;22.66;32.62;99202.50;6137884;28;97459;-64
2021/10/16 07:51:32;;;;;;;;;12.00;11.00;;;;;22.03;33.66;99214.44;6141493;28;97428;-64
2021/10/16 07:54:36;;;;;;;;;13.00;12.25;;;;;21.59;34.31;99211.75;6126085;28;96601;-63
2021/10/16 07:57:40;;;;;;;;;14.00;13.00;;;;;22.62;32.60;99190.47;6142758;28;97451;-64
2021/10/16 08:00:43;;;;;;;;;12.60;11.00;;;;;23.00;31.96;99216.16;6145302;28;97439;-65
2021/10/16 08:03:47;;;;;;;;;15.00;13.75;;;;;22.17;33.13;99222.81;6118999;28;97918;-63
2021/10/16 08:06:50;;;;;;;;;13.00;12.00;;;;;21.54;33.79;99216.47;6127144;28;96989;-65
2021/10/16 08:09:55;;;;;;;;;12.00;11.00;;;;;21.51;34.37;99219.75;6128339;28;97617;-65
2021/10/16 08:12:59;;;;;;;;;13.25;12.00;;;;;21.66;34.28;99227.06;6142981;28;97018;-64
2021/10/16 08:16:02;;;;;;;;;13.00;12.25;;;;;21.26;34.31;99220.72;6143986;28;97567;-64
2021/10/16 08:19:06;;;;;;;;;10.00;9.00;;;;;20.75;34.33;99225.63;6128127;28;97408;-65
2021/10/16 08:22:14;;;;;;;;;9.00;8.00;;;;;20.46;35.22;99233.66;6109606;28;98108;-62
2021/10/16 08:25:18;;;;;;;;;9.00;8.00;;;;;20.30;35.15;99230.13;6132136;28;99574;-65
2021/10/16 08:28:22;;;;;;;;;9.00;8.00;;;;;20.12;35.58;99219.72;6141324;28;97981;-62
2021/10/16 08:31:25;;;;;;;;;8.00;7.40;;;;;19.82;35.32;99204.16;6141896;28;96752;-64
2021/10/16 08:34:29;;;;;;;;;10.50;9.00;;;;;19.88;35.73;99232.34;6124937;28;96686;-63
2021/10/16 08:37:32;;;;;;;;;7.00;6.00;;;;;20.03;35.85;99224.13;6142268;28;97168;-64
2021/10/16 08:40:37;;;;;;;;;6.00;6.00;;;;;20.04;35.68;99223.00;6121090;28;97636;-63
2021/10/16 08:43:41;;;;;;;;;8.00;7.00;;;;;19.88;35.58;99216.75;6123214;28;97140;-64
2021/10/16 08:46:47;;;;;;;;;8.60;8.00;;;;;19.81;34.81;99227.13;6140201;28;96809;-63
2021/10/16 08:49:53;;;;;;;;;8.20;7.00;;;;;19.80;35.42;99227.38;6138366;28;97473;-64
2021/10/16 08:52:56;;;;;;;;;7.00;7.00;;;;;19.79;35.34;99226.56;6143206;28;97002;-63
2021/10/16 08:56:04;;;;;;;;;10.20;8.60;;;;;20.01;35.12;99230.94;6139548;28;96730;-65
2021/10/16 08:59:07;;;;;;;;;10.00;8.00;;;;;21.67;32.97;99232.25;6140018;28;97048;-65
2021/10/16 09:02:10;;;;;;;;;8.50;8.00;;;;;22.48;31.41;99226.88;6121773;28;96711;-64
2021/10/16 09:05:15;;;;;;;;;8.33;8.33;;;;;23.69;29.90;99232.78;6136074;28;97452;-65
2021/10/16 09:08:28;;;;;;;;;10.00;8.80;;;;;24.23;28.71;99225.84;6123095;28;96853;-66
2021/10/16 09:11:35;;;;;;;;;9.00;8.60;;;;;23.63;29.22;99239.47;6106487;28;97785;-67
2021/10/16 09:14:46;;;;;;;;;11.00;9.00;;;;;23.48;29.83;99238.88;6139866;28;96602;-68
2021/10/16 09:18:03;;;;;;;;;7.60;7.00;;;;;24.52;28.39;99251.22;6140148;28;97430;-66
2021/10/16 09:21:15;;;;;;;;;8.60;8.00;;;;;24.26;28.31;99246.47;6139845;28;96858;-65
2021/10/16 09:24:24;;;;;;;;;7.80;7.00;;;;;24.17;28.48;99243.59;6144343;28;96693;-66
2021/10/16 09:27:30;;;;;;;;;8.40;8.00;;;;;23.65;29.03;99250.22;6140147;28;96741;-66
2021/10/16 09:30:33;;;;;;;;;9.00;9.00;;;;;23.07;30.27;99250.41;6139612;28;97208;-64
2021/10/16 09:33:46;;;;;;;;;9.80;9.40;;;;;22.45;30.39;99245.88;6105391;28;97386;-65
2021/10/16 09:36:49;;;;;;;;;8.20;8.00;;;;;21.97;31.85;99250.47;6140547;28;96730;-65
2021/10/16 09:39:57;;;;;;;;;9.20;9.00;;;;;21.58;33.18;99251.28;6122502;28;97238;-63
2021/10/16 09:43:17;;;;;;;;;9.60;9.00;;;;;21.21;34.42;99250.91;6139782;28;97461;-63
2021/10/16 09:46:22;;;;;;;;;11.00;10.00;;;;;20.90;35.21;99242.00;6128172;28;97573;-64
2021/10/16 09:49:29;;;;;;;;;8.75;7.25;;;;;20.74;34.73;99248.63;6138338;28;98045;-64
2021/10/16 09:52:35;;;;;;;;;7.50;7.50;;;;;20.42;34.86;99251.75;6139434;28;98224;-63
2021/10/16 09:55:38;;;;;;;;;9.40;8.00;;;;;20.19;35.38;99247.63;6140802;28;98169;-65
2021/10/16 09:58:44;;;;;;;;;7.80;7.80;;;;;20.13;35.57;99250.66;6105237;28;98426;-63
2021/10/16 10:01:47;;;;;;;;;6.80;6.00;;;;;20.05;35.50;99249.28;6138950;28;97088;-66
2021/10/16 10:04:51;;;;;;;;;8.00;8.00;;;;;20.07;34.57;99252.56;6139896;28;97520;-65
2021/10/16 10:07:56;;;;;;;;;8.00;7.00;;;;;19.98;34.61;99250.66;6121609;28;96650;-63
2021/10/16 10:11:02;;;;;;;;;9.80;8.20;;;;;19.82;35.41;99253.41;6138758;28;97487;-63
2021/10/16 10:14:08;;;;;;;;;9.00;9.00;;;;;19.57;35.78;99247.06;6109276;28;97244;-63
2021/10/16 10:17:30;;;;;;;;;10.60;9.00;;;;;19.43;36.65;99250.31;6121135;28;98470;-64
2021/10/16 10:20:34;;;;;;;;;11.60;8.80;;;;;19.40;36.75;99256.31;6121376;28;97857;-65
2021/10/16 10:23:53;;;;;;;;;8.40;8.40;;;;;19.29;36.83;99251.09;6121273;28;97519;-65
2021/10/16 10:27:06;;;;;;;;;10.00;9.00;;;;;19.05;36.79;99245.28;6139479;28;96493;-62
2021/10/16 10:30:40;;;;;;;;;10.00;9.00;;;;;18.95;37.21;99226.13;6139423;28;97509;-66
2021/10/16 10:33:43;;;;;;;;;11.00;10.00;;;;;19.08;37.26;99241.19;6138830;28;96575;-62
2021/10/16 10:36:49;;;;;;;;;11.00;10.00;;;;;19.04;37.51;99244.47;6139135;28;97737;-65
2021/10/16 10:39:57;;;;;;;;;11.00;10.60;;;;;19.00;37.72;99239.81;6107763;28;97231;-65
2021/10/16 10:43:00;;;;;;;;;11.20;10.20;;;;;18.94;37.24;99240.88;6113875;28;96977;-65
2021/10/16 10:46:12;;;;;;;;;10.00;9.25;;;;;18.89;37.64;99233.47;6097363;28;96577;-66
2021/10/16 10:49:17;;;;;;;;;11.40;10.00;;;;;18.88;37.89;99228.25;6112445;28;98529;-62
2021/10/16 10:52:23;;;;;;;;;11.00;9.00;;;;;18.86;38.03;99239.44;6114693;28;96564;-65
2021/10/16 10:55:26;;;;;;;;;11.00;10.00;;;;;18.78;38.13;99234.50;6096871;28;96887;-66
2021/10/16 10:59:04;;;;;;;;;12.20;10.20;;;;;18.76;38.69;99235.88;6080589;28;99834;-62
2021/10/16 11:02:08;;;;;;;;;10.80;9.80;;;;;18.55;39.15;99233.03;6103843;28;96431;-65
2021/10/16 11:05:34;;;;;;;;;12.00;11.00;;;;;18.36;39.60;99228.25;6096390;28;96822;-66
2021/10/16 11:08:41;;;;;;;;;12.00;11.60;;;;;18.32;40.16;99238.91;6114510;28;96526;-64
2021/10/16 11:11:46;;;;;;;;;13.00;11.00;;;;;18.28;39.64;99231.47;6113851;28;96858;-64
2021/10/16 11:14:49;;;;;;;;;12.50;11.00;;;;;18.23;39.84;99237.72;6113751;28;97160;-64
2021/10/16 11:17:53;;;;;;;;;13.40;13.00;;;;;18.18;40.20;99230.31;6113898;28;97500;-64
2021/10/16 11:21:03;;;;;;;;;11.20;10.60;;;;;18.07;40.33;99228.63;6094450;28;98314;-62
2021/10/16 11:24:07;;;;;;;;;11.00;10.00;;;;;18.03;40.12;99232.13;6112714;28;96841;-62
2021/10/16 11:27:10;;;;;;;;;12.00;11.20;;;;;17.99;39.97;99225.53;6087912;28;97711;-62
2021/10/16 11:30:18;;;;;;;;;11.00;11.00;;;;;17.90;40.56;99227.09;6104189;28;98361;-63
2021/10/16 11:33:24;;;;;;;;;13.00;12.00;;;;;17.94;40.68;99223.59;6122022;28;96543;-62
2021/10/16 11:36:28;;;;;;;;;12.60;11.40;;;;;17.96;40.77;99226.06;6122962;28;97038;-62
2021/10/16 11:39:31;;;;;;;;;12.00;11.00;;;;;17.97;40.61;99220.38;6122967;28;96783;-62
2021/10/16 11:42:35;;;;;;;;;13.25;11.75;;;;;17.90;40.90;99219.75;6121563;28;97540;-62
2021/10/16 11:45:40;;;;;;;;;12.00;11.00;;;;;17.83;40.83;99221.06;6122005;28;96502;-63
2021/10/16 11:48:46;;;;;;;;;11.00;11.00;;;;;17.71;40.24;99185.78;6121937;28;97081;-62
2021/10/16 11:51:50;;;;;;;;;11.00;10.00;;;;;17.98;40.39;99218.47;6121538;28;96431;-61
2021/10/16 11:55:10;;;;;;;;;11.25;10.25;;;;;18.09;40.47;99215.53;6119255;28;96942;-64
2021/10/16 11:58:16;;;;;;;;;12.40;10.40;;;;;18.36;39.29;99209.16;6113262;28;97016;-63
2021/10/16 12:01:19;;;;;;;;;12.40;10.00;;;;;18.43;39.16;99212.44;6113062;28;97005;-64
2021/10/16 12:04:24;;;;;;;;;10.00;8.50;;;;;18.53;38.54;99216.09;6120628;28;96716;-61
2021/10/16 12:07:28;;;;;;;;;11.00;10.00;;;;;18.50;38.29;99207.59;6120848;28;96612;-62
2021/10/16 12:10:34;;;;;;;;;9.00;8.00;;;;;18.49;37.92;99204.03;6119491;28;97307;-63
2021/10/16 12:13:56;;;;;;;;;10.00;9.00;;;;;18.49;37.93;99209.50;6119234;28;97556;-63
2021/10/16 12:17:08;;;;;;;;;11.75;9.75;;;;;18.41;38.24;99207.28;6118446;28;97430;-63
2021/10/16 12:20:13;;;;;;;;;10.40;9.00;;;;;18.38;38.00;99198.78;6120850;28;96603;-61
2021/10/16 12:23:16;;;;;;;;;10.75;9.75;;;;;18.26;38.23;99204.47;6104923;28;98026;-63
2021/10/16 12:26:22;;;;;;;;;11.40;9.60;;;;;18.25;38.17;99196.53;6122655;28;97477;-63
2021/10/16 12:29:29;;;;;;;;;12.40;11.00;;;;;18.33;38.11;99187.81;6111146;28;97345;-61
2021/10/16 12:32:32;;;;;;;;;11.40;11.00;;;;;18.38;38.22;99196.03;6107829;28;97937;-62
2021/10/16 12:35:38;;;;;;;;;9.50;9.50;;;;;18.34;38.38;99189.47;6114606;28;97482;-64
2021/10/16 12:38:47;;;;;;;;;12.40;11.00;;;;;18.27;38.96;99188.91;6116879;28;97540;-63
2021/10/16 12:41:50;;;;;;;;;12.25;12.00;;;;;18.28;38.81;99187.78;6134411;28;97392;-61
2021/10/16 12:44:55;;;;;;;;;12.60;12.00;;;;;18.26;39.42;99179.06;6120135;28;98409;-64
2021/10/16 12:48:22;;;;;;;;;17.20;15.00;;;;;18.31;39.04;99185.38;6140073;28;97024;-63
2021/10/16 12:51:41;;;;;;;;;16.00;13.00;;;;;18.30;39.58;99189.19;6125757;28;97092;-64
2021/10/16 12:54:45;;;;;;;;;16.00;15.00;;;;;18.35;39.26;99188.41;6138881;28;96747;-63
2021/10/16 12:57:56;;;;;;;;;15.00;13.50;;;;;18.13;39.25;99183.91;6121737;28;96583;-63
2021/10/16 13:00:59;;;;;;;;;12.00;12.00;;;;;18.17;39.26;99187.75;6117583;28;97274;-63
2021/10/16 13:04:02;;;;;;;;;12.00;11.20;;;;;18.24;39.24;99189.41;6130416;28;97462;-61
2021/10/16 13:07:07;;;;;;;;;13.00;12.60;;;;;18.25;38.85;99196.53;6138404;28;97448;-63
2021/10/16 13:10:11;;;;;;;;;16.40;15.00;;;;;18.24;39.11;99186.69;6138024;28;96983;-63
2021/10/16 13:13:14;;;;;;;;;14.00;13.00;;;;;18.24;38.82;99194.88;6138048;28;97631;-61
2021/10/16 13:56:06;;;;;;;;;11.00;10.00;;;;;18.07;38.57;99171.31;7464905;22;96894;-62
2021/10/16 13:59:10;;;;;;;;;11.00;10.00;;;;;18.11;38.84;99174.34;6143575;28;98334;-64
2021/10/16 14:02:32;;;;;;;;;11.60;11.00;;;;;18.14;38.69;99180.09;6151283;28;97376;-65
2021/10/16 14:05:38;;;;;;;;;11.00;11.00;;;;;18.12;38.61;99176.81;6139991;28;98210;-62
2021/10/16 14:08:41;;;;;;;;;11.40;11.40;;;;;18.08;38.69;99172.94;6150747;28;97473;-66
2021/10/16 14:11:47;;;;;;;;;12.20;10.00;;;;;18.02;38.55;99171.28;6143770;28;97625;-64
2021/10/16 14:14:53;;;;;;;;;11.00;10.00;;;;;17.99;38.59;99185.44;6129800;28;97602;-63
2021/10/16 14:17:57;;;;;;;;;11.00;10.00;;;;;17.99;38.75;99184.63;6133853;28;97436;-62
2021/10/16 14:21:00;;;;;;;;;10.60;9.80;;;;;17.97;38.54;99178.63;6119045;28;98492;-63
2021/10/16 14:24:04;;;;;;;;;9.20;9.20;;;;;17.94;38.76;99181.84;6119632;28;97192;-64
2021/10/16 14:27:10;;;;;;;;;13.00;11.60;;;;;17.95;39.12;99187.06;6139027;28;97413;-66
2021/10/16 14:30:13;;;;;;;;;11.60;11.00;;;;;17.98;38.99;99188.47;6132367;28;97284;-61
2021/10/16 14:33:22;;;;;;;;;11.75;10.00;;;;;17.91;39.21;99188.66;6121942;28;97175;-64
2021/10/16 14:36:25;;;;;;;;;14.00;12.00;;;;;17.86;39.02;99193.25;6125332;28;96758;-63
2021/10/16 14:39:29;;;;;;;;;12.00;11.00;;;;;17.77;39.24;99194.84;6132583;28;97665;-64
2021/10/16 14:42:33;;;;;;;;;14.00;12.00;;;;;17.80;39.57;99191.56;6126689;28;97523;-64
2021/10/16 14:45:37;;;;;;;;;13.00;11.00;;;;;17.74;39.39;99191.53;6136577;28;96727;-63
2021/10/16 14:48:42;;;;;;;;;12.00;10.00;;;;;17.69;39.83;99185.25;6131148;28;97336;-61
2021/10/16 14:51:46;;;;;;;;;11.00;10.00;;;;;17.61;39.60;99182.97;6138147;28;97539;-64
2021/10/16 14:54:49;;;;;;;;;11.00;10.00;;;;;17.54;39.39;99187.81;6137889;28;96704;-63
2021/10/16 14:57:54;;;;;;;;;12.00;10.00;;;;;17.56;39.94;99191.91;6137877;28;97476;-63
2021/10/16 15:00:57;;;;;;;;;10.25;9.50;;;;;17.56;39.61;99193.81;6138736;28;96457;-61
2021/10/16 15:04:01;;;;;;;;;9.40;9.40;;;;;17.55;39.48;99195.69;6138559;28;96439;-60
2021/10/16 15:07:04;;;;;;;;;10.00;9.00;;;;;17.54;39.91;99194.09;6138956;28;97066;-61
2021/10/16 15:10:10;;;;;;;;;11.00;10.60;;;;;17.51;39.88;99191.03;6134345;28;96673;-61
2021/10/16 15:13:16;;;;;;;;;12.00;11.80;;;;;17.50;40.08;99197.56;6134785;28;99864;-63
2021/10/16 15:16:20;;;;;;;;;12.00;10.00;;;;;17.38;40.28;99194.19;6138290;28;96878;-62
2021/10/16 15:19:24;;;;;;;;;14.00;12.00;;;;;17.28;40.46;99195.75;6129129;28;96680;-63
2021/10/16 15:22:27;;;;;;;;;11.00;10.00;;;;;17.16;40.98;99195.06;6138245;28;97593;-62
2021/10/16 15:25:31;;;;;;;;;12.00;10.00;;;;;17.13;40.81;99197.47;6138184;28;97559;-61
2021/10/16 15:28:36;;;;;;;;;14.00;13.00;;;;;16.99;41.09;99198.97;6137655;28;97464;-64
2021/10/16 15:31:41;;;;;;;;;12.33;12.00;;;;;16.97;41.49;99201.94;6130706;28;96581;-64
2021/10/16 15:34:45;;;;;;;;;11.00;10.00;;;;;16.95;41.53;99200.56;6136916;28;97576;-64
2021/10/16 15:37:48;;;;;;;;;11.60;11.00;;;;;16.95;41.73;99195.13;6128965;28;96585;-63
2021/10/16 15:40:51;;;;;;;;;14.00;13.00;;;;;16.97;41.18;99204.66;6125921;28;97108;-61
2021/10/16 15:43:56;;;;;;;;;12.20;12.00;;;;;16.97;41.38;99210.09;6137841;28;97629;-64
2021/10/16 15:46:59;;;;;;;;;13.00;12.00;;;;;16.95;41.74;99208.72;6137836;28;97034;-61